Aviation Digital Data Service (ADDS)

Output produced by METARs form (1923 UTC 23 June 2018)
found at http://aviationweather.gov/adds/metars/
 
METAR text: KHDN 231856Z AUTO 00000KT 10SM CLR 23/M02 A3004 RMK AO2 SLP096 T02331017
Conditions at: KHDN (HAYDEN/YAMPA , CO, US) observed 1856 UTC 23 June 2018
Temperature: 23.3°C (74°F)
Dewpoint: -1.7°C (29°F) [RH = 19%]
Pressure (altimeter): 30.04 inches Hg (1017.4 mb)
[Sea-level pressure: 1009.6 mb]
Winds: calm
Visibility: 10 or more miles (16+ km)
Ceiling: at least 12,000 feet AGL
Clouds: sky clear below 12,000 feet AGL
Weather: automated observation with no human augmentation;
there may or may not be significant weather present at this time